sensor_id;sensor_type;location;lat;lon;timestamp;P1;durP1;ratioP1;P2;durP2;ratioP2
78346;SDS011;67803;41.330;69.282;2023-05-10T00:01:56;13.18;;;4.50;;
78346;SDS011;67803;41.330;69.282;2023-05-10T00:04:27;14.85;;;5.05;;
78346;SDS011;67803;41.330;69.282;2023-05-10T00:06:58;19.42;;;5.90;;
78346;SDS011;67803;41.330;69.282;2023-05-10T00:09:28;16.80;;;5.07;;
78346;SDS011;67803;41.330;69.282;2023-05-10T00:11:59;19.65;;;5.10;;
78346;SDS011;67803;41.330;69.282;2023-05-10T00:14:29;15.95;;;5.28;;
78346;SDS011;67803;41.330;69.282;2023-05-10T00:17:00;11.60;;;4.32;;
78346;SDS011;67803;41.330;69.282;2023-05-10T00:19:30;13.55;;;4.78;;
78346;SDS011;67803;41.330;69.282;2023-05-10T00:22:01;17.15;;;4.90;;
78346;SDS011;67803;41.330;69.282;2023-05-10T00:24:31;15.73;;;5.05;;
78346;SDS011;67803;41.330;69.282;2023-05-10T00:27:02;20.00;;;5.10;;
78346;SDS011;67803;41.330;69.282;2023-05-10T00:29:34;18.45;;;5.03;;
78346;SDS011;67803;41.330;69.282;2023-05-10T00:32:04;13.93;;;4.45;;
78346;SDS011;67803;41.330;69.282;2023-05-10T00:34:35;13.25;;;5.13;;
78346;SDS011;67803;41.330;69.282;2023-05-10T00:37:06;15.10;;;5.70;;
78346;SDS011;67803;41.330;69.282;2023-05-10T00:39:36;13.88;;;4.88;;
78346;SDS011;67803;41.330;69.282;2023-05-10T00:42:07;13.48;;;5.07;;
78346;SDS011;67803;41.330;69.282;2023-05-10T00:44:37;11.98;;;5.00;;
78346;SDS011;67803;41.330;69.282;2023-05-10T00:47:08;14.73;;;4.93;;
78346;SDS011;67803;41.330;69.282;2023-05-10T00:49:39;19.08;;;5.30;;
78346;SDS011;67803;41.330;69.282;2023-05-10T00:52:09;20.35;;;5.60;;
78346;SDS011;67803;41.330;69.282;2023-05-10T00:54:40;22.85;;;4.97;;
78346;SDS011;67803;41.330;69.282;2023-05-10T00:57:10;18.75;;;5.38;;
78346;SDS011;67803;41.330;69.282;2023-05-10T00:59:42;14.48;;;5.00;;
78346;SDS011;67803;41.330;69.282;2023-05-10T01:02:12;12.85;;;4.75;;
78346;SDS011;67803;41.330;69.282;2023-05-10T01:04:43;17.30;;;4.97;;
78346;SDS011;67803;41.330;69.282;2023-05-10T01:07:13;18.95;;;4.70;;
78346;SDS011;67803;41.330;69.282;2023-05-10T01:09:44;20.00;;;5.20;;
78346;SDS011;67803;41.330;69.282;2023-05-10T01:12:15;21.00;;;5.75;;
78346;SDS011;67803;41.330;69.282;2023-05-10T01:14:45;16.10;;;5.05;;
78346;SDS011;67803;41.330;69.282;2023-05-10T01:17:16;14.48;;;4.80;;
78346;SDS011;67803;41.330;69.282;2023-05-10T01:19:46;16.65;;;5.25;;
78346;SDS011;67803;41.330;69.282;2023-05-10T01:38:16;14.88;;;4.30;;
78346;SDS011;67803;41.330;69.282;2023-05-10T01:43:26;18.42;;;5.13;;
78346;SDS011;67803;41.330;69.282;2023-05-10T01:46:00;10.73;;;4.50;;
78346;SDS011;67803;41.330;69.282;2023-05-10T01:48:31;21.00;;;5.53;;
78346;SDS011;67803;41.330;69.282;2023-05-10T01:51:02;17.58;;;4.88;;
78346;SDS011;67803;41.330;69.282;2023-05-10T01:53:33;21.35;;;5.22;;
78346;SDS011;67803;41.330;69.282;2023-05-10T01:56:05;14.90;;;4.55;;
78346;SDS011;67803;41.330;69.282;2023-05-10T01:58:37;18.40;;;4.57;;
78346;SDS011;67803;41.330;69.282;2023-05-10T02:01:08;16.30;;;4.10;;
78346;SDS011;67803;41.330;69.282;2023-05-10T02:03:40;11.23;;;4.32;;
78346;SDS011;67803;41.330;69.282;2023-05-10T02:06:12;23.40;;;5.25;;
78346;SDS011;67803;41.330;69.282;2023-05-10T02:08:43;16.67;;;4.57;;
78346;SDS011;67803;41.330;69.282;2023-05-10T02:11:16;16.15;;;4.80;;
78346;SDS011;67803;41.330;69.282;2023-05-10T02:13:48;17.20;;;4.65;;
78346;SDS011;67803;41.330;69.282;2023-05-10T02:16:19;13.65;;;4.28;;
78346;SDS011;67803;41.330;69.282;2023-05-10T02:18:52;19.88;;;5.30;;
78346;SDS011;67803;41.330;69.282;2023-05-10T02:21:23;19.33;;;4.65;;
78346;SDS011;67803;41.330;69.282;2023-05-10T02:23:54;18.60;;;4.80;;
78346;SDS011;67803;41.330;69.282;2023-05-10T02:26:25;16.73;;;4.72;;
78346;SDS011;67803;41.330;69.282;2023-05-10T02:28:56;19.10;;;5.00;;
78346;SDS011;67803;41.330;69.282;2023-05-10T02:31:28;18.67;;;4.95;;
78346;SDS011;67803;41.330;69.282;2023-05-10T02:34:00;11.93;;;4.07;;
78346;SDS011;67803;41.330;69.282;2023-05-10T02:36:31;17.75;;;4.82;;
78346;SDS011;67803;41.330;69.282;2023-05-10T02:39:02;15.52;;;5.10;;
78346;SDS011;67803;41.330;69.282;2023-05-10T02:41:33;12.52;;;4.78;;
78346;SDS011;67803;41.330;69.282;2023-05-10T02:44:03;16.67;;;4.28;;
78346;SDS011;67803;41.330;69.282;2023-05-10T02:46:36;13.80;;;3.83;;
78346;SDS011;67803;41.330;69.282;2023-05-10T02:49:07;16.83;;;4.43;;
78346;SDS011;67803;41.330;69.282;2023-05-10T02:51:40;18.25;;;4.72;;
78346;SDS011;67803;41.330;69.282;2023-05-10T02:54:19;13.40;;;4.00;;
78346;SDS011;67803;41.330;69.282;2023-05-10T02:56:57;16.85;;;4.45;;
78346;SDS011;67803;41.330;69.282;2023-05-10T02:59:27;19.67;;;4.45;;
78346;SDS011;67803;41.330;69.282;2023-05-10T03:01:58;19.65;;;5.13;;
78346;SDS011;67803;41.330;69.282;2023-05-10T03:04:30;16.90;;;4.80;;
78346;SDS011;67803;41.330;69.282;2023-05-10T03:07:01;15.93;;;4.38;;
78346;SDS011;67803;41.330;69.282;2023-05-10T03:09:31;20.90;;;4.70;;
78346;SDS011;67803;41.330;69.282;2023-05-10T03:12:04;21.48;;;5.00;;
78346;SDS011;67803;41.330;69.282;2023-05-10T03:17:11;17.20;;;4.78;;
78346;SDS011;67803;41.330;69.282;2023-05-10T03:22:17;12.65;;;3.90;;
78346;SDS011;67803;41.330;69.282;2023-05-10T03:24:50;13.25;;;4.57;;
78346;SDS011;67803;41.330;69.282;2023-05-10T03:27:23;18.50;;;4.00;;
78346;SDS011;67803;41.330;69.282;2023-05-10T03:29:55;20.63;;;4.65;;
78346;SDS011;67803;41.330;69.282;2023-05-10T03:32:26;13.80;;;4.68;;
78346;SDS011;67803;41.330;69.282;2023-05-10T03:34:57;17.38;;;5.32;;
78346;SDS011;67803;41.330;69.282;2023-05-10T03:37:27;18.45;;;4.43;;
78346;SDS011;67803;41.330;69.282;2023-05-10T03:39:58;15.35;;;4.55;;
78346;SDS011;67803;41.330;69.282;2023-05-10T03:42:28;17.40;;;4.53;;
78346;SDS011;67803;41.330;69.282;2023-05-10T03:44:59;22.80;;;4.75;;
78346;SDS011;67803;41.330;69.282;2023-05-10T03:47:29;22.33;;;5.57;;
78346;SDS011;67803;41.330;69.282;2023-05-10T03:50:00;14.50;;;4.20;;
78346;SDS011;67803;41.330;69.282;2023-05-10T03:52:30;17.67;;;4.15;;
78346;SDS011;67803;41.330;69.282;2023-05-10T03:55:01;15.38;;;4.18;;
78346;SDS011;67803;41.330;69.282;2023-05-10T03:57:33;19.17;;;4.93;;
78346;SDS011;67803;41.330;69.282;2023-05-10T04:00:04;18.35;;;5.15;;
78346;SDS011;67803;41.330;69.282;2023-05-10T04:02:35;52.50;;;7.22;;
78346;SDS011;67803;41.330;69.282;2023-05-10T04:05:06;30.65;;;5.18;;
78346;SDS011;67803;41.330;69.282;2023-05-10T04:07:36;35.63;;;8.50;;
78346;SDS011;67803;41.330;69.282;2023-05-10T04:10:07;19.33;;;5.60;;
78346;SDS011;67803;41.330;69.282;2023-05-10T04:12:37;21.15;;;4.60;;
78346;SDS011;67803;41.330;69.282;2023-05-10T04:15:08;15.77;;;4.50;;
78346;SDS011;67803;41.330;69.282;2023-05-10T04:17:39;18.73;;;5.32;;
78346;SDS011;67803;41.330;69.282;2023-05-10T04:20:09;24.05;;;5.22;;
78346;SDS011;67803;41.330;69.282;2023-05-10T04:22:40;22.33;;;5.60;;
78346;SDS011;67803;41.330;69.282;2023-05-10T04:25:10;23.85;;;4.68;;
78346;SDS011;67803;41.330;69.282;2023-05-10T04:27:41;20.20;;;4.78;;
78346;SDS011;67803;41.330;69.282;2023-05-10T04:30:12;16.48;;;4.35;;
78346;SDS011;67803;41.330;69.282;2023-05-10T04:32:42;28.77;;;4.80;;
78346;SDS011;67803;41.330;69.282;2023-05-10T04:35:13;24.95;;;4.75;;
78346;SDS011;67803;41.330;69.282;2023-05-10T04:37:44;20.77;;;4.57;;
78346;SDS011;67803;41.330;69.282;2023-05-10T04:40:15;19.80;;;4.20;;
78346;SDS011;67803;41.330;69.282;2023-05-10T04:42:45;22.60;;;4.82;;
78346;SDS011;67803;41.330;69.282;2023-05-10T04:45:16;14.00;;;4.05;;
78346;SDS011;67803;41.330;69.282;2023-05-10T04:47:47;18.45;;;4.25;;
78346;SDS011;67803;41.330;69.282;2023-05-10T04:50:17;21.48;;;4.85;;
78346;SDS011;67803;41.330;69.282;2023-05-10T04:52:48;20.40;;;4.75;;
78346;SDS011;67803;41.330;69.282;2023-05-10T04:55:18;16.52;;;4.10;;
78346;SDS011;67803;41.330;69.282;2023-05-10T04:57:48;16.77;;;4.85;;
78346;SDS011;67803;41.330;69.282;2023-05-10T05:00:19;20.23;;;4.57;;
78346;SDS011;67803;41.330;69.282;2023-05-10T05:02:49;12.60;;;4.18;;
78346;SDS011;67803;41.330;69.282;2023-05-10T05:05:20;19.77;;;5.13;;
78346;SDS011;67803;41.330;69.282;2023-05-10T05:07:50;16.83;;;4.43;;
78346;SDS011;67803;41.330;69.282;2023-05-10T05:10:21;22.70;;;4.57;;
78346;SDS011;67803;41.330;69.282;2023-05-10T05:12:51;22.35;;;5.22;;
78346;SDS011;67803;41.330;69.282;2023-05-10T05:15:22;15.77;;;4.78;;
78346;SDS011;67803;41.330;69.282;2023-05-10T05:17:53;20.42;;;4.65;;
78346;SDS011;67803;41.330;69.282;2023-05-10T05:20:23;17.75;;;4.82;;
78346;SDS011;67803;41.330;69.282;2023-05-10T05:22:54;22.55;;;5.82;;
78346;SDS011;67803;41.330;69.282;2023-05-10T05:25:24;19.70;;;5.38;;
78346;SDS011;67803;41.330;69.282;2023-05-10T05:27:55;15.52;;;4.40;;
78346;SDS011;67803;41.330;69.282;2023-05-10T05:30:25;13.45;;;4.70;;
78346;SDS011;67803;41.330;69.282;2023-05-10T05:32:56;15.63;;;4.78;;
78346;SDS011;67803;41.330;69.282;2023-05-10T05:35:26;13.73;;;5.70;;
78346;SDS011;67803;41.330;69.282;2023-05-10T05:37:57;13.52;;;4.40;;
78346;SDS011;67803;41.330;69.282;2023-05-10T05:40:27;19.55;;;4.40;;
78346;SDS011;67803;41.330;69.282;2023-05-10T05:42:58;20.15;;;4.30;;
78346;SDS011;67803;41.330;69.282;2023-05-10T05:45:28;17.40;;;4.40;;
78346;SDS011;67803;41.330;69.282;2023-05-10T05:47:59;12.10;;;4.18;;
78346;SDS011;67803;41.330;69.282;2023-05-10T05:50:29;17.48;;;5.10;;
78346;SDS011;67803;41.330;69.282;2023-05-10T05:53:00;19.45;;;4.20;;
78346;SDS011;67803;41.330;69.282;2023-05-10T05:55:31;21.38;;;4.88;;
78346;SDS011;67803;41.330;69.282;2023-05-10T05:58:01;24.02;;;4.97;;
78346;SDS011;67803;41.330;69.282;2023-05-10T06:00:32;18.50;;;4.40;;
78346;SDS011;67803;41.330;69.282;2023-05-10T06:03:02;14.88;;;4.28;;
78346;SDS011;67803;41.330;69.282;2023-05-10T06:05:33;18.02;;;5.10;;
78346;SDS011;67803;41.330;69.282;2023-05-10T06:08:04;22.05;;;5.07;;
78346;SDS011;67803;41.330;69.282;2023-05-10T06:10:34;17.35;;;4.45;;
78346;SDS011;67803;41.330;69.282;2023-05-10T06:13:05;16.50;;;4.53;;
78346;SDS011;67803;41.330;69.282;2023-05-10T06:15:35;14.98;;;4.45;;
78346;SDS011;67803;41.330;69.282;2023-05-10T06:18:06;25.67;;;5.38;;
78346;SDS011;67803;41.330;69.282;2023-05-10T06:20:36;13.77;;;4.53;;
78346;SDS011;67803;41.330;69.282;2023-05-10T06:23:07;13.43;;;4.30;;
78346;SDS011;67803;41.330;69.282;2023-05-10T06:25:37;17.98;;;4.45;;
78346;SDS011;67803;41.330;69.282;2023-05-10T06:28:08;11.88;;;3.63;;
78346;SDS011;67803;41.330;69.282;2023-05-10T06:30:38;16.80;;;5.30;;
78346;SDS011;67803;41.330;69.282;2023-05-10T06:33:08;21.85;;;4.28;;
78346;SDS011;67803;41.330;69.282;2023-05-10T06:35:39;14.25;;;4.40;;
78346;SDS011;67803;41.330;69.282;2023-05-10T06:38:10;26.23;;;5.07;;
78346;SDS011;67803;41.330;69.282;2023-05-10T06:40:41;19.15;;;5.90;;
78346;SDS011;67803;41.330;69.282;2023-05-10T06:43:11;19.92;;;5.13;;
78346;SDS011;67803;41.330;69.282;2023-05-10T06:45:42;16.80;;;4.32;;
78346;SDS011;67803;41.330;69.282;2023-05-10T06:48:12;14.00;;;3.88;;
78346;SDS011;67803;41.330;69.282;2023-05-10T06:50:43;16.52;;;4.55;;
78346;SDS011;67803;41.330;69.282;2023-05-10T06:53:14;18.63;;;4.38;;
78346;SDS011;67803;41.330;69.282;2023-05-10T06:55:44;18.27;;;4.53;;
78346;SDS011;67803;41.330;69.282;2023-05-10T06:58:15;17.38;;;4.57;;
78346;SDS011;67803;41.330;69.282;2023-05-10T07:00:45;15.02;;;4.00;;
78346;SDS011;67803;41.330;69.282;2023-05-10T07:03:17;15.90;;;3.78;;
78346;SDS011;67803;41.330;69.282;2023-05-10T07:05:47;12.82;;;3.78;;
78346;SDS011;67803;41.330;69.282;2023-05-10T07:08:18;15.93;;;4.28;;
78346;SDS011;67803;41.330;69.282;2023-05-10T07:10:48;17.63;;;4.10;;
78346;SDS011;67803;41.330;69.282;2023-05-10T07:13:19;16.38;;;4.47;;
78346;SDS011;67803;41.330;69.282;2023-05-10T07:15:49;18.20;;;4.57;;
78346;SDS011;67803;41.330;69.282;2023-05-10T07:18:20;16.35;;;3.90;;
78346;SDS011;67803;41.330;69.282;2023-05-10T07:20:50;15.00;;;3.95;;
78346;SDS011;67803;41.330;69.282;2023-05-10T07:23:21;15.07;;;3.95;;
78346;SDS011;67803;41.330;69.282;2023-05-10T07:25:51;13.68;;;4.30;;
78346;SDS011;67803;41.330;69.282;2023-05-10T07:28:22;13.73;;;3.92;;
78346;SDS011;67803;41.330;69.282;2023-05-10T07:30:54;15.15;;;4.15;;
78346;SDS011;67803;41.330;69.282;2023-05-10T07:33:24;15.68;;;4.28;;
78346;SDS011;67803;41.330;69.282;2023-05-10T07:35:55;17.55;;;4.13;;
78346;SDS011;67803;41.330;69.282;2023-05-10T07:38:25;21.92;;;4.85;;
78346;SDS011;67803;41.330;69.282;2023-05-10T07:40:56;17.30;;;4.93;;
78346;SDS011;67803;41.330;69.282;2023-05-10T07:43:26;18.45;;;4.78;;
78346;SDS011;67803;41.330;69.282;2023-05-10T07:45:57;14.95;;;4.32;;
78346;SDS011;67803;41.330;69.282;2023-05-10T07:48:29;17.90;;;4.40;;
78346;SDS011;67803;41.330;69.282;2023-05-10T07:51:00;17.52;;;4.18;;
78346;SDS011;67803;41.330;69.282;2023-05-10T07:53:30;17.10;;;4.18;;
78346;SDS011;67803;41.330;69.282;2023-05-10T07:56:19;19.98;;;4.40;;
78346;SDS011;67803;41.330;69.282;2023-05-10T07:58:50;19.35;;;4.38;;
78346;SDS011;67803;41.330;69.282;2023-05-10T08:01:20;12.82;;;3.63;;
78346;SDS011;67803;41.330;69.282;2023-05-10T08:03:51;17.80;;;4.35;;
78346;SDS011;67803;41.330;69.282;2023-05-10T08:06:23;16.13;;;3.80;;
78346;SDS011;67803;41.330;69.282;2023-05-10T08:08:53;18.23;;;4.63;;
78346;SDS011;67803;41.330;69.282;2023-05-10T08:11:24;19.08;;;4.38;;
78346;SDS011;67803;41.330;69.282;2023-05-10T08:13:55;19.83;;;4.30;;
78346;SDS011;67803;41.330;69.282;2023-05-10T08:16:25;12.25;;;4.10;;
78346;SDS011;67803;41.330;69.282;2023-05-10T08:18:56;21.95;;;4.47;;
78346;SDS011;67803;41.330;69.282;2023-05-10T08:21:26;19.15;;;4.75;;
78346;SDS011;67803;41.330;69.282;2023-05-10T08:23:57;14.80;;;4.13;;
78346;SDS011;67803;41.330;69.282;2023-05-10T08:26:27;16.23;;;3.75;;
78346;SDS011;67803;41.330;69.282;2023-05-10T08:28:58;17.45;;;4.07;;
78346;SDS011;67803;41.330;69.282;2023-05-10T08:31:28;17.65;;;4.32;;
78346;SDS011;67803;41.330;69.282;2023-05-10T08:33:59;15.32;;;3.92;;
78346;SDS011;67803;41.330;69.282;2023-05-10T08:36:30;17.45;;;5.10;;
78346;SDS011;67803;41.330;69.282;2023-05-10T08:39:02;16.08;;;4.35;;
78346;SDS011;67803;41.330;69.282;2023-05-10T08:41:33;15.95;;;3.95;;
78346;SDS011;67803;41.330;69.282;2023-05-10T08:44:04;21.33;;;4.90;;
78346;SDS011;67803;41.330;69.282;2023-05-10T08:46:35;12.75;;;4.00;;
78346;SDS011;67803;41.330;69.282;2023-05-10T08:49:08;19.58;;;6.55;;
78346;SDS011;67803;41.330;69.282;2023-05-10T08:51:40;17.17;;;4.43;;
78346;SDS011;67803;41.330;69.282;2023-05-10T08:54:10;14.55;;;4.28;;
78346;SDS011;67803;41.330;69.282;2023-05-10T08:56:41;14.20;;;3.75;;
78346;SDS011;67803;41.330;69.282;2023-05-10T08:59:12;18.85;;;4.72;;
78346;SDS011;67803;41.330;69.282;2023-05-10T09:01:44;17.13;;;4.18;;
78346;SDS011;67803;41.330;69.282;2023-05-10T09:04:15;22.75;;;4.90;;
78346;SDS011;67803;41.330;69.282;2023-05-10T09:06:46;21.23;;;4.55;;
78346;SDS011;67803;41.330;69.282;2023-05-10T09:09:17;15.80;;;3.95;;
78346;SDS011;67803;41.330;69.282;2023-05-10T09:11:47;17.65;;;4.88;;
78346;SDS011;67803;41.330;69.282;2023-05-10T09:14:18;15.98;;;4.43;;
78346;SDS011;67803;41.330;69.282;2023-05-10T09:16:48;21.08;;;4.40;;
78346;SDS011;67803;41.330;69.282;2023-05-10T09:19:19;19.00;;;4.25;;
78346;SDS011;67803;41.330;69.282;2023-05-10T09:21:49;18.45;;;4.40;;
78346;SDS011;67803;41.330;69.282;2023-05-10T09:24:20;23.35;;;4.20;;
78346;SDS011;67803;41.330;69.282;2023-05-10T09:26:56;16.77;;;4.22;;
78346;SDS011;67803;41.330;69.282;2023-05-10T09:29:28;19.45;;;4.25;;
78346;SDS011;67803;41.330;69.282;2023-05-10T09:32:08;17.13;;;4.40;;
78346;SDS011;67803;41.330;69.282;2023-05-10T09:34:39;15.20;;;3.75;;
78346;SDS011;67803;41.330;69.282;2023-05-10T09:37:11;14.27;;;3.80;;
78346;SDS011;67803;41.330;69.282;2023-05-10T09:39:41;16.08;;;3.92;;
78346;SDS011;67803;41.330;69.282;2023-05-10T09:42:12;20.95;;;7.05;;
78346;SDS011;67803;41.330;69.282;2023-05-10T09:44:42;15.13;;;3.92;;
78346;SDS011;67803;41.330;69.282;2023-05-10T09:47:16;13.02;;;4.00;;
78346;SDS011;67803;41.330;69.282;2023-05-10T09:49:50;11.43;;;3.90;;
78346;SDS011;67803;41.330;69.282;2023-05-10T09:52:23;15.13;;;4.07;;
78346;SDS011;67803;41.330;69.282;2023-05-10T09:54:53;13.30;;;3.83;;
78346;SDS011;67803;41.330;69.282;2023-05-10T09:57:24;20.63;;;3.83;;
78346;SDS011;67803;41.330;69.282;2023-05-10T09:59:55;14.93;;;4.25;;
78346;SDS011;67803;41.330;69.282;2023-05-10T10:02:30;14.27;;;3.97;;
78346;SDS011;67803;41.330;69.282;2023-05-10T10:05:01;17.30;;;4.32;;
78346;SDS011;67803;41.330;69.282;2023-05-10T10:07:33;12.38;;;3.85;;
78346;SDS011;67803;41.330;69.282;2023-05-10T10:10:04;13.43;;;4.07;;
78346;SDS011;67803;41.330;69.282;2023-05-10T10:12:35;16.00;;;3.88;;
78346;SDS011;67803;41.330;69.282;2023-05-10T10:15:06;11.63;;;4.55;;
78346;SDS011;67803;41.330;69.282;2023-05-10T10:17:37;16.35;;;3.92;;
78346;SDS011;67803;41.330;69.282;2023-05-10T10:20:10;15.80;;;4.40;;
78346;SDS011;67803;41.330;69.282;2023-05-10T10:22:41;15.63;;;4.22;;
78346;SDS011;67803;41.330;69.282;2023-05-10T10:25:14;10.73;;;4.00;;
78346;SDS011;67803;41.330;69.282;2023-05-10T10:30:35;12.60;;;4.10;;
78346;SDS011;67803;41.330;69.282;2023-05-10T10:35:39;22.00;;;5.40;;
78346;SDS011;67803;41.330;69.282;2023-05-10T10:38:11;17.17;;;4.65;;
78346;SDS011;67803;41.330;69.282;2023-05-10T10:40:42;11.40;;;3.58;;
78346;SDS011;67803;41.330;69.282;2023-05-10T10:43:26;16.85;;;4.13;;
78346;SDS011;67803;41.330;69.282;2023-05-10T10:48:47;16.45;;;4.15;;
78346;SDS011;67803;41.330;69.282;2023-05-10T10:51:18;11.23;;;3.85;;
78346;SDS011;67803;41.330;69.282;2023-05-10T10:53:48;12.48;;;3.80;;
78346;SDS011;67803;41.330;69.282;2023-05-10T10:56:19;16.55;;;4.22;;
78346;SDS011;67803;41.330;69.282;2023-05-10T10:58:56;11.98;;;4.05;;
78346;SDS011;67803;41.330;69.282;2023-05-10T11:01:33;15.68;;;4.20;;
78346;SDS011;67803;41.330;69.282;2023-05-10T11:06:35;13.70;;;3.67;;
78346;SDS011;67803;41.330;69.282;2023-05-10T11:09:10;14.70;;;4.72;;
78346;SDS011;67803;41.330;69.282;2023-05-10T11:11:51;16.42;;;3.88;;
78346;SDS011;67803;41.330;69.282;2023-05-10T11:14:22;17.00;;;3.85;;
78346;SDS011;67803;41.330;69.282;2023-05-10T11:16:52;15.23;;;4.13;;
78346;SDS011;67803;41.330;69.282;2023-05-10T11:19:23;13.07;;;3.90;;
78346;SDS011;67803;41.330;69.282;2023-05-10T11:24:33;9.68;;;3.28;;
78346;SDS011;67803;41.330;69.282;2023-05-10T11:27:05;12.93;;;3.92;;
78346;SDS011;67803;41.330;69.282;2023-05-10T11:29:36;14.68;;;3.72;;
78346;SDS011;67803;41.330;69.282;2023-05-10T11:32:06;17.58;;;3.58;;
78346;SDS011;67803;41.330;69.282;2023-05-10T11:34:38;35.03;;;5.25;;
78346;SDS011;67803;41.330;69.282;2023-05-10T11:37:08;15.80;;;3.85;;
78346;SDS011;67803;41.330;69.282;2023-05-10T11:39:39;15.13;;;3.80;;
78346;SDS011;67803;41.330;69.282;2023-05-10T11:42:16;18.10;;;3.70;;
78346;SDS011;67803;41.330;69.282;2023-05-10T11:44:47;9.95;;;3.47;;
78346;SDS011;67803;41.330;69.282;2023-05-10T11:47:18;11.68;;;3.22;;
78346;SDS011;67803;41.330;69.282;2023-05-10T11:49:48;17.08;;;3.88;;
78346;SDS011;67803;41.330;69.282;2023-05-10T11:52:19;14.57;;;3.30;;
78346;SDS011;67803;41.330;69.282;2023-05-10T11:54:53;15.27;;;3.78;;
78346;SDS011;67803;41.330;69.282;2023-05-10T11:57:26;14.38;;;3.53;;
78346;SDS011;67803;41.330;69.282;2023-05-10T11:59:56;19.15;;;3.78;;
78346;SDS011;67803;41.330;69.282;2023-05-10T12:02:28;10.68;;;3.20;;
78346;SDS011;67803;41.330;69.282;2023-05-10T12:04:59;14.57;;;3.15;;
78346;SDS011;67803;41.330;69.282;2023-05-10T12:07:29;17.30;;;3.85;;
78346;SDS011;67803;41.330;69.282;2023-05-10T12:10:04;14.18;;;3.38;;
78346;SDS011;67803;41.330;69.282;2023-05-10T12:12:45;16.40;;;3.58;;
78346;SDS011;67803;41.330;69.282;2023-05-10T12:15:19;12.18;;;2.97;;
78346;SDS011;67803;41.330;69.282;2023-05-10T12:17:50;12.90;;;3.53;;
78346;SDS011;67803;41.330;69.282;2023-05-10T12:20:22;13.52;;;3.22;;
78346;SDS011;67803;41.330;69.282;2023-05-10T12:22:53;9.98;;;3.20;;
78346;SDS011;67803;41.330;69.282;2023-05-10T12:25:28;10.10;;;3.28;;
78346;SDS011;67803;41.330;69.282;2023-05-10T12:28:00;12.38;;;3.28;;
78346;SDS011;67803;41.330;69.282;2023-05-10T12:30:33;10.15;;;2.80;;
78346;SDS011;67803;41.330;69.282;2023-05-10T12:33:07;11.45;;;3.17;;
78346;SDS011;67803;41.330;69.282;2023-05-10T12:35:45;12.23;;;3.20;;
78346;SDS011;67803;41.330;69.282;2023-05-10T12:38:29;14.13;;;3.20;;
78346;SDS011;67803;41.330;69.282;2023-05-10T12:41:01;12.00;;;3.05;;
78346;SDS011;67803;41.330;69.282;2023-05-10T12:43:32;12.63;;;2.95;;
78346;SDS011;67803;41.330;69.282;2023-05-10T12:46:10;17.35;;;3.75;;
78346;SDS011;67803;41.330;69.282;2023-05-10T12:48:41;13.73;;;4.05;;
78346;SDS011;67803;41.330;69.282;2023-05-10T12:51:12;19.55;;;3.67;;
78346;SDS011;67803;41.330;69.282;2023-05-10T12:53:45;14.35;;;3.10;;
78346;SDS011;67803;41.330;69.282;2023-05-10T12:56:17;22.88;;;3.95;;
78346;SDS011;67803;41.330;69.282;2023-05-10T12:58:48;17.27;;;3.78;;
78346;SDS011;67803;41.330;69.282;2023-05-10T13:01:18;15.70;;;3.20;;
78346;SDS011;67803;41.330;69.282;2023-05-10T13:03:49;15.50;;;3.10;;
78346;SDS011;67803;41.330;69.282;2023-05-10T13:06:20;14.95;;;3.80;;
78346;SDS011;67803;41.330;69.282;2023-05-10T13:08:51;22.08;;;3.60;;
78346;SDS011;67803;41.330;69.282;2023-05-10T13:11:21;16.00;;;3.05;;
78346;SDS011;67803;41.330;69.282;2023-05-10T13:13:52;12.82;;;3.10;;
78346;SDS011;67803;41.330;69.282;2023-05-10T13:16:22;12.57;;;2.92;;
78346;SDS011;67803;41.330;69.282;2023-05-10T13:18:53;15.02;;;3.13;;
78346;SDS011;67803;41.330;69.282;2023-05-10T13:21:23;14.38;;;3.78;;
78346;SDS011;67803;41.330;69.282;2023-05-10T13:23:55;16.23;;;3.58;;
78346;SDS011;67803;41.330;69.282;2023-05-10T13:26:25;11.40;;;4.55;;
78346;SDS011;67803;41.330;69.282;2023-05-10T13:28:56;15.30;;;3.33;;
78346;SDS011;67803;41.330;69.282;2023-05-10T13:31:26;12.13;;;3.10;;
78346;SDS011;67803;41.330;69.282;2023-05-10T13:33:57;15.52;;;3.35;;
78346;SDS011;67803;41.330;69.282;2023-05-10T13:36:27;14.32;;;3.70;;
78346;SDS011;67803;41.330;69.282;2023-05-10T13:38:58;14.30;;;4.38;;
78346;SDS011;67803;41.330;69.282;2023-05-10T13:41:28;13.18;;;4.38;;
78346;SDS011;67803;41.330;69.282;2023-05-10T13:43:59;14.35;;;4.38;;
78346;SDS011;67803;41.330;69.282;2023-05-10T13:46:29;16.30;;;4.90;;
78346;SDS011;67803;41.330;69.282;2023-05-10T13:49:00;19.95;;;7.13;;
78346;SDS011;67803;41.330;69.282;2023-05-10T13:51:32;19.17;;;5.45;;
78346;SDS011;67803;41.330;69.282;2023-05-10T13:54:03;16.63;;;5.22;;
78346;SDS011;67803;41.330;69.282;2023-05-10T13:56:39;17.40;;;8.00;;
78346;SDS011;67803;41.330;69.282;2023-05-10T13:59:11;17.67;;;6.78;;
78346;SDS011;67803;41.330;69.282;2023-05-10T14:01:41;19.52;;;6.13;;
78346;SDS011;67803;41.330;69.282;2023-05-10T14:04:12;17.30;;;6.07;;
78346;SDS011;67803;41.330;69.282;2023-05-10T14:06:43;14.55;;;5.57;;
78346;SDS011;67803;41.330;69.282;2023-05-10T14:09:13;17.23;;;5.15;;
78346;SDS011;67803;41.330;69.282;2023-05-10T14:11:44;17.27;;;5.55;;
78346;SDS011;67803;41.330;69.282;2023-05-10T14:14:15;19.50;;;6.20;;
78346;SDS011;67803;41.330;69.282;2023-05-10T14:16:46;17.48;;;5.35;;
78346;SDS011;67803;41.330;69.282;2023-05-10T14:19:16;20.85;;;5.18;;
78346;SDS011;67803;41.330;69.282;2023-05-10T14:21:47;21.23;;;6.68;;
78346;SDS011;67803;41.330;69.282;2023-05-10T14:24:18;20.13;;;6.35;;
78346;SDS011;67803;41.330;69.282;2023-05-10T14:26:48;16.83;;;6.70;;
78346;SDS011;67803;41.330;69.282;2023-05-10T14:29:19;20.50;;;6.60;;
78346;SDS011;67803;41.330;69.282;2023-05-10T14:31:50;23.60;;;6.93;;
78346;SDS011;67803;41.330;69.282;2023-05-10T14:34:20;23.75;;;6.82;;
78346;SDS011;67803;41.330;69.282;2023-05-10T14:36:51;20.73;;;8.27;;
78346;SDS011;67803;41.330;69.282;2023-05-10T14:39:21;35.13;;;14.95;;
78346;SDS011;67803;41.330;69.282;2023-05-10T14:41:53;25.73;;;11.68;;
78346;SDS011;67803;41.330;69.282;2023-05-10T14:44:24;22.15;;;6.70;;
78346;SDS011;67803;41.330;69.282;2023-05-10T14:46:55;17.55;;;6.57;;
78346;SDS011;67803;41.330;69.282;2023-05-10T14:49:26;26.63;;;7.47;;
78346;SDS011;67803;41.330;69.282;2023-05-10T14:51:56;23.65;;;7.80;;
78346;SDS011;67803;41.330;69.282;2023-05-10T14:54:27;20.35;;;5.78;;
78346;SDS011;67803;41.330;69.282;2023-05-10T14:56:58;27.48;;;7.22;;
78346;SDS011;67803;41.330;69.282;2023-05-10T14:59:28;16.73;;;5.78;;
78346;SDS011;67803;41.330;69.282;2023-05-10T15:01:59;17.13;;;5.88;;
78346;SDS011;67803;41.330;69.282;2023-05-10T15:04:30;21.30;;;5.90;;
78346;SDS011;67803;41.330;69.282;2023-05-10T15:07:01;21.55;;;6.28;;
78346;SDS011;67803;41.330;69.282;2023-05-10T15:09:31;15.40;;;5.80;;
78346;SDS011;67803;41.330;69.282;2023-05-10T15:12:02;24.58;;;6.05;;
78346;SDS011;67803;41.330;69.282;2023-05-10T15:14:32;19.00;;;5.75;;
78346;SDS011;67803;41.330;69.282;2023-05-10T15:17:05;20.30;;;6.13;;
78346;SDS011;67803;41.330;69.282;2023-05-10T15:19:36;14.65;;;5.60;;
78346;SDS011;67803;41.330;69.282;2023-05-10T15:22:07;20.05;;;6.05;;